Ayersville, North Carolina
Current Conditions -  °F | °C
As of 5:15 AM on Thursday 23 Oct 2014 (Local Time) from KSIF Reporting Station
Clear Clear  
Wind Chill: 37°   Ceiling: Unl
Heat Index: 37°   Visibility: 7mi
Dew Point: 36°   Wind: 0mph
Humidity: 98%   Direction: NA
Pressure: 30.05"   Gusts: NA
Location:  36.4479°N, 79.9473°W
Report Text: KSIF 230915Z AUTO 00000KT 7SM CLR 03/02 A3005 RMK AO2 T00260023
Loading
Personal Weather Stations






























Interactive Weather Map New forecast layout! Learn more

10-Day Weather Forecast

Advertisements
Track Severe Weather on mobile